Time;durP1;ratioP1;P1;durP2;ratioP2;P2;SDS_P1;SDS_P2;PMS_P1;PMS_P2;Temp;Humidity;BMP_temperature;BMP_pressure;BME280_temperature;BME280_humidity;BME280_pressure;Samples;Min_cycle;Max_cycle;Signal;HPM_P1;HPM_P2
2024/01/29 00:02:05;;;;;;;1.63;1.52;;;;;;;0.00;100.00;102718.28;4871031;29;20061;-73
2024/01/29 00:04:31;;;;;;;3.40;3.13;;;;;;;0.17;100.00;102740.25;4853576;29;20060;-73
2024/01/29 00:06:56;;;;;;;0.85;0.60;;;;;;;0.17;100.00;102736.00;4868593;29;20124;-73
2024/01/29 00:09:23;;;;;;;1.15;1.15;;;;;;;0.08;100.00;102727.50;4868866;29;20473;-73
2024/01/29 00:11:49;;;;;;;0.47;0.47;;;;;;;-0.36;100.00;102643.97;4866711;29;20072;-73
2024/01/29 00:14:14;;;;;;;0.85;0.85;;;;;;;0.12;100.00;102759.66;4865381;29;20132;-73
2024/01/29 00:16:40;;;;;;;0.30;0.30;;;;;;;0.14;100.00;102753.84;4865220;29;20313;-74
2024/01/29 00:19:05;;;;;;;1.83;1.73;;;;;;;0.25;100.00;102767.56;4866571;29;20113;-73
2024/01/29 00:21:31;;;;;;;0.60;0.60;;;;;;;0.30;100.00;102755.03;4869292;29;20041;-73
2024/01/29 00:24:00;;;;;;;1.25;1.25;;;;;;;-0.08;100.00;102693.53;4863213;29;20120;-73
2024/01/29 00:26:26;;;;;;;0.30;0.30;;;;;;;-0.09;100.00;102671.09;4863220;29;20072;-74
2024/01/29 00:28:51;;;;;;;0.68;0.68;;;;;;;0.14;100.00;102761.56;4847951;29;20068;-74
2024/01/29 00:31:17;;;;;;;0.35;0.35;;;;;;;0.10;100.00;102736.28;4872906;29;20063;-73
2024/01/29 00:33:43;;;;;;;0.82;0.82;;;;;;;0.40;100.00;102767.91;4872160;29;20053;-73
2024/01/29 00:36:08;;;;;;;0.82;0.82;;;;;;;-0.25;100.00;102659.53;4874057;29;20132;-73
2024/01/29 00:38:34;;;;;;;7.22;6.80;;;;;;;-0.16;100.00;102663.66;4872941;29;20045;-73
2024/01/29 00:40:59;;;;;;;0.60;0.60;;;;;;;0.31;100.00;102756.84;4874009;29;20058;-72
2024/01/29 00:43:25;;;;;;;1.70;1.60;;;;;;;0.40;100.00;102766.22;4875849;29;20799;-72
2024/01/29 00:45:50;;;;;;;1.45;1.35;;;;;;;0.13;100.00;102749.44;4873224;29;20591;-73
2024/01/29 00:48:16;;;;;;;0.60;0.60;;;;;;;0.29;100.00;102733.47;4874932;29;20532;-73
2024/01/29 00:50:41;;;;;;;1.33;1.33;;;;;;;0.38;100.00;102765.19;4852350;29;20044;-74
2024/01/29 00:53:07;;;;;;;3.40;2.55;;;;;;;0.34;100.00;102764.84;4867660;29;20056;-73
2024/01/29 00:55:32;;;;;;;0.30;0.30;;;;;;;-0.45;100.00;102657.03;4871207;29;20394;-72
2024/01/29 00:57:59;;;;;;;21.58;8.38;;;;;;;0.29;100.00;102756.72;4872540;29;20108;-72
2024/01/29 01:00:25;;;;;;;8.18;7.35;;;;;;;0.19;100.00;102760.25;4876158;29;20052;-72
2024/01/29 01:02:50;;;;;;;0.73;0.73;;;;;;;0.22;100.00;102751.84;4869691;29;20077;-72
2024/01/29 01:05:16;;;;;;;1.75;1.65;;;;;;;-0.06;100.00;102761.63;4868166;29;20041;-72
2024/01/29 01:07:41;;;;;;;0.40;0.40;;;;;;;-0.75;100.00;102651.19;4867696;29;20056;-73
2024/01/29 01:10:07;;;;;;;0.63;0.63;;;;;;;-0.22;100.00;102729.44;4849848;29;20165;-73
2024/01/29 01:12:33;;;;;;;4.35;4.13;;;;;;;0.10;100.00;102756.94;4869569;29;20033;-72
2024/01/29 01:14:58;;;;;;;2.50;2.30;;;;;;;-0.43;100.00;102665.78;4866756;29;20144;-72
2024/01/29 01:17:24;;;;;;;6.82;6.35;;;;;;;-0.81;100.00;102653.25;4867400;29;20045;-72
2024/01/29 01:19:51;;;;;;;0.30;0.30;;;;;;;-0.13;100.00;102756.75;4866981;29;20173;-73
2024/01/29 01:22:16;;;;;;;1.15;1.15;;;;;;;0.01;100.00;102753.63;4869063;29;20045;-72
2024/01/29 01:24:42;;;;;;;1.05;1.05;;;;;;;-0.04;100.00;102765.25;4868437;29;20367;-72
2024/01/29 01:27:07;;;;;;;2.47;2.38;;;;;;;-0.73;100.00;102672.81;4868612;29;20140;-73
2024/01/29 01:29:33;;;;;;;0.32;0.32;;;;;;;-0.29;100.00;102752.03;4869597;29;20710;-72
2024/01/29 01:31:58;;;;;;;1.45;1.35;;;;;;;-0.77;100.00;102663.06;4870178;29;20048;-73
2024/01/29 01:34:24;;;;;;;0.30;0.30;;;;;;;-0.41;100.00;102741.59;4871127;29;20549;-73
2024/01/29 01:36:49;;;;;;;1.15;1.05;;;;;;;-0.27;100.00;102745.31;4871995;29;20081;-73
2024/01/29 01:39:15;;;;;;;1.67;1.58;;;;;;;-0.19;100.00;102759.72;4871920;29;20033;-73
2024/01/29 01:41:48;;;;;;;0.30;0.30;;;;;;;-0.22;100.00;102762.97;4858084;29;20144;-73
2024/01/29 01:44:13;;;;;;;0.50;0.50;;;;;;;-0.32;100.00;102763.00;4873298;29;20148;-72
2024/01/29 01:46:39;;;;;;;0.63;0.63;;;;;;;-0.87;100.00;102663.06;4873474;29;20208;-72
2024/01/29 01:49:04;;;;;;;0.60;0.60;;;;;;;-0.83;100.00;102651.34;4870364;29;20048;-72
2024/01/29 01:51:30;;;;;;;0.50;0.50;;;;;;;-0.23;100.00;102762.84;4875387;29;20036;-72
2024/01/29 01:53:59;;;;;;;1.98;1.85;;;;;;;-0.51;100.00;102733.91;4868349;29;20481;-72
2024/01/29 01:56:24;;;;;;;0.88;0.88;;;;;;;-0.45;100.00;102745.59;4869550;29;20469;-72
2024/01/29 01:58:53;;;;;;;0.82;0.82;;;;;;;-0.30;100.00;102765.72;4870360;29;20041;-73
2024/01/29 02:01:20;;;;;;;3.30;3.13;;;;;;;-1.17;100.00;102608.25;4867420;29;20514;-73
2024/01/29 02:03:45;;;;;;;0.50;0.50;;;;;;;-0.22;100.00;102757.81;4872568;29;20113;-73
2024/01/29 02:06:12;;;;;;;0.57;0.57;;;;;;;-0.31;100.00;102757.03;4853140;29;20131;-73
2024/01/29 02:08:38;;;;;;;3.28;3.08;;;;;;;-0.37;100.00;102751.41;4868737;29;20680;-74
2024/01/29 02:11:04;;;;;;;0.30;0.30;;;;;;;-0.29;100.00;102762.34;4867838;29;20053;-72
2024/01/29 02:13:30;;;;;;;2.80;2.65;;;;;;;-0.86;100.00;102675.19;4870259;29;20132;-73
2024/01/29 02:15:56;;;;;;;1.48;1.48;;;;;;;-0.43;100.00;102749.22;4870353;29;20048;-73
2024/01/29 02:18:22;;;;;;;1.20;1.05;;;;;;;-0.84;100.00;102658.19;4871102;29;20116;-73
2024/01/29 02:20:47;;;;;;;0.40;0.40;;;;;;;-0.62;100.00;102706.34;4870930;29;20219;-73
2024/01/29 02:23:13;;;;;;;1.02;1.02;;;;;;;-0.80;100.00;102661.88;4886017;29;20040;-73
2024/01/29 02:25:39;;;;;;;1.30;1.20;;;;;;;-0.27;100.00;102755.63;4865465;29;20045;-73
2024/01/29 02:28:04;;;;;;;4.78;4.43;;;;;;;-0.83;100.00;102651.34;4872500;29;20523;-70
2024/01/29 02:30:30;;;;;;;2.20;2.10;;;;;;;-0.47;100.00;102700.75;4871153;29;20120;-73
2024/01/29 02:32:55;;;;;;;0.40;0.40;;;;;;;0.04;100.00;102764.19;4866983;29;20485;-73
2024/01/29 02:35:22;;;;;;;0.50;0.50;;;;;;;-0.57;100.00;102656.03;4866493;29;20045;-72
2024/01/29 02:37:48;;;;;;;2.05;1.95;;;;;;;-0.11;100.00;102765.53;4870048;29;20509;-73
2024/01/29 02:40:13;;;;;;;4.72;4.47;;;;;;;-0.80;100.00;102674.78;4851845;29;20175;-72
2024/01/29 02:42:40;;;;;;;5.43;5.10;;;;;;;-0.97;100.00;102669.13;4869828;29;20036;-75
2024/01/29 02:45:06;;;;;;;1.25;1.20;;;;;;;-0.14;100.00;102765.25;4867148;29;20528;-74
2024/01/29 02:47:31;;;;;;;1.23;1.23;;;;;;;-0.50;100.00;102697.00;4869070;29;20041;-72
2024/01/29 02:49:57;;;;;;;1.25;1.25;;;;;;;-0.14;100.00;102745.56;4865276;29;20057;-73
2024/01/29 02:52:22;;;;;;;1.52;1.42;;;;;;;0.08;100.00;102763.66;4868168;29;20565;-73
2024/01/29 02:54:48;;;;;;;0.93;0.93;;;;;;;-0.35;100.00;102746.34;4867403;29;20517;-73
2024/01/29 02:57:13;;;;;;;2.50;2.40;;;;;;;-0.47;100.00;102668.88;4870142;29;20083;-72
2024/01/29 02:59:39;;;;;;;1.60;1.50;;;;;;;-0.36;100.00;102675.81;4873813;29;20108;-73
2024/01/29 03:02:06;;;;;;;1.02;1.02;;;;;;;0.26;100.00;102781.38;4851847;29;20056;-73
2024/01/29 03:04:32;;;;;;;1.50;1.42;;;;;;;0.40;100.00;102775.66;4872382;29;20045;-72
2024/01/29 03:06:57;;;;;;;1.00;1.00;;;;;;;0.41;100.00;102777.44;4868803;29;20109;-74
2024/01/29 03:09:23;;;;;;;4.07;3.80;;;;;;;-0.19;100.00;102694.34;4871321;29;20109;-74
2024/01/29 03:11:48;;;;;;;6.90;6.43;;;;;;;0.19;100.00;102777.44;4872196;29;20052;-73
2024/01/29 03:14:14;;;;;;;7.85;7.28;;;;;;;-0.29;100.00;102692.69;4869834;29;20064;-73
2024/01/29 03:16:40;;;;;;;2.60;2.50;;;;;;;0.47;100.00;102782.19;4867414;29;20061;-73
2024/01/29 03:19:07;;;;;;;1.30;1.27;;;;;;;0.41;100.00;102787.78;4864949;29;20053;-72
2024/01/29 03:21:33;;;;;;;3.08;2.90;;;;;;;0.05;100.00;102705.72;4869879;29;20413;-74
2024/01/29 03:23:58;;;;;;;0.50;0.50;;;;;;;-0.38;100.00;102699.69;4867125;29;20787;-73
2024/01/29 03:26:24;;;;;;;4.38;4.13;;;;;;;0.29;100.00;102781.66;4870634;29;20103;-73
2024/01/29 03:28:49;;;;;;;1.92;1.83;;;;;;;-0.08;100.00;102698.69;4856174;29;20053;-73
2024/01/29 03:31:15;;;;;;;9.85;5.07;;;;;;;0.45;100.00;102792.41;4869372;29;20057;-72
2024/01/29 03:33:40;;;;;;;6.72;4.97;;;;;;;0.56;100.00;102801.00;4871869;29;20025;-73
2024/01/29 03:36:07;;;;;;;4.60;4.40;;;;;;;0.66;100.00;102812.97;4870825;29;20454;-71
2024/01/29 03:38:33;;;;;;;0.98;0.98;;;;;;;-0.16;100.00;102700.66;4867409;29;20060;-74
2024/01/29 03:40:59;;;;;;;7.32;6.85;;;;;;;0.58;100.00;102805.50;4871052;29;20056;-73
2024/01/29 03:43:25;;;;;;;1.10;0.95;;;;;;;0.59;100.00;102803.84;4871931;29;20116;-73
2024/01/29 03:45:52;;;;;;;1.65;1.55;;;;;;;0.09;100.00;102765.44;4868161;29;20077;-74
2024/01/29 03:48:18;;;;;;;1.05;1.05;;;;;;;0.33;100.00;102800.09;4871228;29;20039;-73
2024/01/29 03:50:44;;;;;;;3.75;3.55;;;;;;;0.78;100.00;102826.84;4883538;29;20061;-73
2024/01/29 03:53:09;;;;;;;3.10;2.85;;;;;;;0.64;100.00;102797.34;4868130;29;20053;-74
2024/01/29 03:55:35;;;;;;;1.85;1.75;;;;;;;0.17;100.00;102725.66;4867650;29;20109;-73
2024/01/29 03:58:01;;;;;;;13.48;12.48;;;;;;;0.71;100.00;102827.16;4870368;29;20717;-73
2024/01/29 04:00:26;;;;;;;0.40;0.40;;;;;;;0.35;100.00;102739.16;4870260;29;21628;-73
2024/01/29 04:02:52;;;;;;;3.22;3.10;;;;;;;0.96;100.00;102833.47;4869726;29;20045;-75
2024/01/29 04:05:18;;;;;;;1.35;1.35;;;;;;;0.46;100.00;102721.00;4876906;29;20049;-73
2024/01/29 04:07:45;;;;;;;5.38;3.70;;;;;;;0.88;100.00;102823.31;4871212;29;20051;-73
2024/01/29 04:10:11;;;;;;;4.68;4.45;;;;;;;1.01;100.00;102823.50;4874901;29;20102;-73
2024/01/29 04:12:37;;;;;;;2.17;1.05;;;;;;;0.94;100.00;102809.19;4859201;29;20393;-73
2024/01/29 04:15:03;;;;;;;1.63;1.52;;;;;;;0.86;100.00;102797.34;4874584;29;20939;-73
2024/01/29 04:17:29;;;;;;;0.50;0.50;;;;;;;1.04;100.00;102836.66;4870375;29;20044;-72
2024/01/29 04:19:54;;;;;;;3.33;3.20;;;;;;;0.94;100.00;102790.19;4870131;29;20045;-72
2024/01/29 04:22:20;;;;;;;0.43;0.43;;;;;;;1.01;100.00;102839.91;4887016;29;20057;-73
2024/01/29 04:24:45;;;;;;;0.47;0.47;;;;;;;0.33;100.00;102739.81;4876473;29;20175;-73
2024/01/29 04:27:11;;;;;;;3.40;3.10;;;;;;;1.02;100.00;102828.75;4867635;29;20041;-73
2024/01/29 04:29:36;;;;;;;0.30;0.30;;;;;;;0.99;100.00;102815.59;4870665;29;20068;-73
2024/01/29 04:32:02;;;;;;;9.40;8.77;;;;;;;1.04;100.00;102803.94;4871469;29;20820;-73
2024/01/29 04:34:28;;;;;;;2.65;2.55;;;;;;;1.02;100.00;102813.25;4868102;29;20681;-73
2024/01/29 04:36:53;;;;;;;0.88;0.88;;;;;;;1.03;100.00;102811.56;4869449;29;20371;-73
2024/01/29 04:39:19;;;;;;;3.50;3.35;;;;;;;0.82;100.00;102798.78;4873674;29;20032;-73
2024/01/29 04:41:44;;;;;;;4.28;3.42;;;;;;;0.32;100.00;102718.22;4874975;29;20412;-74
2024/01/29 04:44:11;;;;;;;6.90;3.50;;;;;;;0.20;100.00;102718.16;4871600;29;20152;-72
2024/01/29 04:46:36;;;;;;;0.50;0.50;;;;;;;0.81;100.00;102817.66;4849580;29;20878;-73
2024/01/29 04:49:02;;;;;;;5.00;4.75;;;;;;;0.41;100.00;102741.28;4868297;29;20049;-73
2024/01/29 04:51:27;;;;;;;5.22;4.93;;;;;;;0.46;100.00;102764.91;4870508;29;20051;-73
2024/01/29 04:53:53;;;;;;;3.10;2.92;;;;;;;-0.52;100.00;102624.69;4870821;29;20099;-73
2024/01/29 04:56:19;;;;;;;0.30;0.30;;;;;;;0.42;100.00;102737.91;4853187;29;20092;-72
2024/01/29 04:58:45;;;;;;;0.50;0.50;;;;;;;0.65;100.00;102818.91;4848969;29;20041;-73
2024/01/29 05:01:10;;;;;;;1.15;1.15;;;;;;;0.37;100.00;102763.38;4853075;29;20053;-74
2024/01/29 05:03:36;;;;;;;0.40;0.40;;;;;;;-0.23;100.00;102768.91;4849999;29;20037;-72
2024/01/29 05:06:02;;;;;;;1.15;1.15;;;;;;;-0.09;100.00;102819.06;4852288;29;20193;-73
2024/01/29 05:08:27;;;;;;;2.15;2.05;;;;;;;-0.49;100.00;102745.25;4853507;29;20057;-73
2024/01/29 05:10:53;;;;;;;0.32;0.32;;;;;;;0.27;100.00;102832.25;4857760;29;20061;-73
2024/01/29 05:13:19;;;;;;;0.70;0.70;;;;;;;-0.56;100.00;102790.25;4851820;29;20117;-73
2024/01/29 05:15:44;;;;;;;2.38;2.28;;;;;;;-0.18;100.00;102861.28;4836570;29;20045;-74
2024/01/29 05:18:10;;;;;;;0.40;0.40;;;;;;;-0.30;100.00;102846.56;4851723;29;20116;-72
2024/01/29 05:20:36;;;;;;;0.52;0.52;;;;;;;0.08;100.00;102866.91;4848073;29;20049;-73
2024/01/29 05:23:01;;;;;;;1.00;1.00;;;;;;;-0.21;100.00;102856.75;4856110;29;20140;-73
2024/01/29 05:25:27;;;;;;;3.42;3.22;;;;;;;-0.14;100.00;102871.97;4855407;29;20049;-72
2024/01/29 05:27:52;;;;;;;1.30;1.25;;;;;;;-0.25;100.00;102831.47;4836857;29;20130;-74
2024/01/29 05:30:18;;;;;;;0.70;0.70;;;;;;;0.10;100.00;102867.94;4856300;29;20037;-73
2024/01/29 05:32:44;;;;;;;1.85;1.75;;;;;;;-0.22;100.00;102791.34;4854005;29;20050;-73
2024/01/29 05:35:10;;;;;;;0.43;0.43;;;;;;;0.29;100.00;102872.00;4847308;29;20049;-74
2024/01/29 05:37:35;;;;;;;1.40;1.30;;;;;;;-0.31;100.00;102826.69;4849561;29;20046;-72
2024/01/29 05:40:01;;;;;;;0.70;0.70;;;;;;;-0.77;100.00;102803.91;4831842;29;20590;-72
2024/01/29 05:42:27;;;;;;;0.30;0.30;;;;;;;0.00;100.00;102891.19;4856073;29;20041;-72
2024/01/29 05:44:52;;;;;;;0.45;0.45;;;;;;;-0.26;100.00;102871.88;4838242;29;20771;-74
2024/01/29 05:47:18;;;;;;;1.35;1.25;;;;;;;-0.03;100.00;102875.44;4854177;29;20053;-73
2024/01/29 05:49:44;;;;;;;0.90;0.90;;;;;;;-0.07;100.00;102888.84;4838227;29;20041;-73
2024/01/29 05:52:10;;;;;;;0.40;0.40;;;;;;;-0.58;100.00;102876.88;4855581;29;20137;-77
2024/01/29 05:54:35;;;;;;;1.60;0.75;;;;;;;-1.02;100.00;102813.81;4860976;29;20140;-73
2024/01/29 05:57:01;;;;;;;5.72;3.00;;;;;;;-0.28;100.00;102899.22;4873277;29;20060;-72
2024/01/29 05:59:26;;;;;;;6.88;6.47;;;;;;;-0.62;100.00;102892.84;4868540;29;20044;-72
2024/01/29 06:01:52;;;;;;;0.30;0.30;;;;;;;-0.81;100.00;102841.41;4869065;29;20059;-73
2024/01/29 06:04:17;;;;;;;0.45;0.45;;;;;;;-0.61;100.00;102904.97;4869688;29;20046;-71
2024/01/29 06:06:43;;;;;;;2.25;2.15;;;;;;;-0.61;100.00;102911.81;4867681;29;20639;-74
2024/01/29 06:09:09;;;;;;;0.38;0.38;;;;;;;-0.65;100.00;102906.41;4872121;29;20037;-72
2024/01/29 06:11:36;;;;;;;0.70;0.70;;;;;;;-0.57;100.00;102899.31;4871844;29;20057;-71
2024/01/29 06:14:02;;;;;;;0.90;0.90;;;;;;;-0.34;100.00;102914.16;4856437;29;20037;-70
2024/01/29 06:16:28;;;;;;;1.70;1.60;;;;;;;-0.39;100.00;102919.72;4868721;29;20160;-72
2024/01/29 06:18:54;;;;;;;0.50;0.50;;;;;;;-0.64;100.00;102846.31;4871705;29;20191;-72
2024/01/29 06:21:21;;;;;;;0.50;0.50;;;;;;;-0.08;100.00;102921.50;4869613;29;20041;-70
2024/01/29 06:23:47;;;;;;;10.35;6.63;;;;;;;-0.40;100.00;102840.50;4868370;29;20140;-70
2024/01/29 06:26:14;;;;;;;3.28;3.05;;;;;;;0.15;100.00;102928.56;4870539;29;20139;-71
2024/01/29 06:28:42;;;;;;;0.40;0.40;;;;;;;0.21;100.00;102941.06;4865956;29;20106;-71
2024/01/29 06:31:08;;;;;;;0.30;0.30;;;;;;;0.33;100.00;102941.22;4870621;29;20145;-71
2024/01/29 06:33:38;;;;;;;0.35;0.35;;;;;;;-0.28;100.00;102918.91;4869905;29;20143;-70
2024/01/29 06:36:05;;;;;;;1.98;1.88;;;;;;;-0.90;100.00;102825.16;4856934;29;20049;-70
2024/01/29 06:38:30;;;;;;;0.55;0.55;;;;;;;0.02;100.00;102915.41;4872281;29;20501;-71
2024/01/29 06:40:57;;;;;;;1.27;1.27;;;;;;;0.16;100.00;102934.63;4867598;29;20049;-70
2024/01/29 06:43:22;;;;;;;7.75;6.85;;;;;;;-0.47;100.00;102857.13;4876200;29;20049;-69
2024/01/29 06:45:48;;;;;;;0.60;0.40;;;;;;;-0.41;100.00;102847.34;4870429;29;20033;-70
2024/01/29 06:48:13;;;;;;;1.77;1.67;;;;;;;0.01;100.00;102886.91;4875302;29;20040;-70
2024/01/29 06:50:41;;;;;;;1.15;1.15;;;;;;;-0.75;100.00;102735.34;4875863;29;20439;-70
2024/01/29 06:53:07;;;;;;;0.60;0.60;;;;;;;0.43;100.00;102943.75;4873426;29;20065;-71
2024/01/29 06:55:32;;;;;;;4.53;4.13;;;;;;;0.36;100.00;102929.44;4871006;29;20052;-71
2024/01/29 06:57:58;;;;;;;6.07;5.78;;;;;;;0.38;100.00;102935.63;4872384;29;20052;-71
2024/01/29 07:00:23;;;;;;;0.40;0.40;;;;;;;-0.64;100.00;102838.56;4872339;29;20077;-71
2024/01/29 07:02:49;;;;;;;3.00;2.78;;;;;;;0.04;100.00;102949.09;4854838;29;20049;-73
2024/01/29 07:05:16;;;;;;;0.70;0.70;;;;;;;0.04;100.00;102907.81;4855101;29;20537;-72
2024/01/29 07:07:42;;;;;;;3.38;3.20;;;;;;;-0.20;100.00;102963.44;4869754;29;20506;-70
2024/01/29 07:10:08;;;;;;;4.00;3.70;;;;;;;-0.60;100.00;102881.00;4867916;29;20060;-71
2024/01/29 07:12:33;;;;;;;0.35;0.35;;;;;;;-0.15;100.00;102944.09;4872946;29;20033;-71
2024/01/29 07:14:59;;;;;;;1.17;1.17;;;;;;;-0.31;100.00;102872.22;4872100;29;20136;-70
2024/01/29 07:17:24;;;;;;;35.08;9.15;;;;;;;-0.01;100.00;102940.97;4868173;29;20086;-71
2024/01/29 07:19:52;;;;;;;0.50;0.50;;;;;;;0.30;100.00;102939.25;4872313;29;20142;-72
2024/01/29 07:22:19;;;;;;;0.98;0.95;;;;;;;0.44;100.00;102953.31;4871651;29;20132;-70
2024/01/29 07:24:48;;;;;;;0.88;0.88;;;;;;;0.20;100.00;102958.25;4854226;29;20155;-71
2024/01/29 07:27:17;;;;;;;0.70;0.70;;;;;;;0.05;100.00;102936.34;4872573;29;20170;-72
2024/01/29 07:29:43;;;;;;;7.22;6.85;;;;;;;0.38;100.00;102942.50;4872586;29;20049;-72
2024/01/29 07:32:08;;;;;;;1.95;1.85;;;;;;;-0.14;100.00;102866.81;4864290;29;20542;-71
2024/01/29 07:34:34;;;;;;;6.10;5.47;;;;;;;0.40;100.00;102957.34;4871866;29;20113;-69
2024/01/29 07:36:59;;;;;;;1.05;1.05;;;;;;;0.46;100.00;102933.69;4871166;29;20056;-70
2024/01/29 07:39:25;;;;;;;4.13;3.92;;;;;;;0.24;100.00;102940.47;4885412;29;20041;-71
2024/01/29 07:41:51;;;;;;;0.95;0.95;;;;;;;0.28;100.00;102884.03;4870612;29;20480;-71
2024/01/29 07:44:17;;;;;;;1.60;1.50;;;;;;;0.29;100.00;102869.44;4855390;29;20049;-71
2024/01/29 07:46:42;;;;;;;4.88;2.17;;;;;;;0.79;100.00;102958.75;4871511;29;20045;-72
2024/01/29 07:49:08;;;;;;;0.70;0.70;;;;;;;0.94;100.00;102968.56;4871727;29;20079;-71
2024/01/29 07:51:33;;;;;;;20.38;7.82;;;;;;;0.98;100.00;102956.00;4871062;29;20029;-72
2024/01/29 07:53:59;;;;;;;1.33;1.33;;;;;;;0.66;100.00;102883.63;4855913;29;20057;-71
2024/01/29 07:56:25;;;;;;;1.02;1.02;;;;;;;0.79;100.00;102896.72;4881323;29;20126;-71
2024/01/29 07:58:51;;;;;;;2.42;2.33;;;;;;;1.09;100.00;102950.75;4868793;29;20129;-72
2024/01/29 08:01:16;;;;;;;0.90;0.90;;;;;;;0.90;100.00;102888.94;4870218;29;20105;-72
2024/01/29 08:03:43;;;;;;;0.30;0.30;;;;;;;0.96;100.00;102904.91;4871941;29;20438;-73
2024/01/29 08:06:09;;;;;;;1.35;1.27;;;;;;;0.70;100.00;102870.16;4871672;29;20040;-71
2024/01/29 08:08:36;;;;;;;0.55;0.55;;;;;;;1.46;100.00;102946.81;4870501;29;20120;-71
2024/01/29 08:11:02;;;;;;;0.70;0.70;;;;;;;1.06;100.00;102860.94;4877197;29;20413;-72
2024/01/29 08:13:27;;;;;;;0.30;0.30;;;;;;;1.15;100.00;102931.47;4865892;29;20732;-71
2024/01/29 08:15:53;;;;;;;1.05;1.05;;;;;;;0.73;100.00;102888.50;4853468;29;20430;-71
2024/01/29 08:18:19;;;;;;;0.40;0.40;;;;;;;0.99;100.00;102931.03;4879293;29;20135;-71
2024/01/29 08:20:44;;;;;;;0.85;0.85;;;;;;;1.67;100.00;102953.63;4870706;29;20045;-71
2024/01/29 08:23:11;;;;;;;0.30;0.30;;;;;;;1.80;100.00;102946.81;4870052;29;20037;-69
2024/01/29 08:25:36;;;;;;;2.58;1.85;;;;;;;2.17;100.00;102960.84;4872122;29;20160;-70
2024/01/29 08:28:02;;;;;;;0.85;0.85;;;;;;;1.24;100.00;102965.81;4871390;29;20561;-73
2024/01/29 08:30:28;;;;;;;0.95;0.95;;;;;;;1.04;100.00;102934.88;4873112;29;20080;-72
2024/01/29 08:32:53;;;;;;;0.73;0.73;;;;;;;1.68;100.00;102954.53;4870177;29;20045;-70
2024/01/29 08:35:19;;;;;;;0.52;0.52;;;;;;;1.81;100.00;102962.47;4854681;29;20040;-70
2024/01/29 08:37:44;;;;;;;2.50;2.38;;;;;;;1.83;100.00;102874.56;4870828;29;20064;-69
2024/01/29 08:40:10;;;;;;;1.88;1.77;;;;;;;1.35;100.00;102860.59;4869731;29;20052;-70
2024/01/29 08:42:36;;;;;;;0.73;0.73;;;;;;;2.40;100.00;102946.13;4874123;29;20516;-69
2024/01/29 08:45:03;;;;;;;3.45;3.20;;;;;;;1.65;100.00;102959.47;4871333;29;20585;-70
2024/01/29 08:47:28;;;;;;;1.33;1.23;;;;;;;1.02;100.00;102870.13;4870743;29;20060;-69
2024/01/29 08:49:54;;;;;;;2.28;2.15;;;;;;;1.79;100.00;102867.34;4870907;29;20128;-70
2024/01/29 08:52:19;;;;;;;0.63;0.63;;;;;;;2.00;100.00;102879.31;4866814;29;20053;-70
2024/01/29 08:54:45;;;;;;;0.40;0.40;;;;;;;1.90;100.00;102941.56;4869237;29;20054;-71
2024/01/29 08:57:11;;;;;;;0.70;0.70;;;;;;;1.33;100.00;102874.19;4887346;29;20037;-69
2024/01/29 08:59:38;;;;;;;7.55;6.90;;;;;;;1.56;100.00;102963.94;4876422;29;20049;-69
2024/01/29 09:02:04;;;;;;;4.80;4.50;;;;;;;1.32;100.00;102957.75;4868723;29;20076;-70
2024/01/29 09:04:29;;;;;;;1.05;0.95;;;;;;;1.11;100.00;102955.28;4873237;29;20532;-70
2024/01/29 09:06:55;;;;;;;0.32;0.32;;;;;;;1.14;100.00;102885.69;4883132;29;20493;-70
2024/01/29 09:09:21;;;;;;;4.45;4.18;;;;;;;1.20;100.00;102968.03;4873743;29;20049;-71
2024/01/29 09:11:46;;;;;;;3.42;3.30;;;;;;;1.49;100.00;102985.84;4869524;29;20045;-69
2024/01/29 09:14:12;;;;;;;0.50;0.50;;;;;;;1.34;100.00;102975.19;4871232;29;20064;-71
2024/01/29 09:16:39;;;;;;;1.65;1.55;;;;;;;1.46;100.00;102972.66;4870291;29;20050;-71
2024/01/29 09:19:04;;;;;;;3.83;3.63;;;;;;;1.40;100.00;102975.66;4874642;29;20049;-70
2024/01/29 09:21:34;;;;;;;1.60;1.50;;;;;;;1.91;100.00;102953.69;4874624;29;20044;-70
2024/01/29 09:24:00;;;;;;;0.40;0.40;;;;;;;1.57;100.00;102956.31;4873518;29;20057;-70
2024/01/29 09:26:25;;;;;;;1.50;1.42;;;;;;;1.59;100.00;102915.00;4873522;29;20056;-69
2024/01/29 09:28:51;;;;;;;1.95;1.85;;;;;;;1.86;100.00;102867.03;4874298;29;20048;-71
2024/01/29 09:31:16;;;;;;;5.18;4.53;;;;;;;2.58;100.00;102938.81;4859023;29;20143;-71
2024/01/29 09:33:42;;;;;;;3.15;2.95;;;;;;;2.47;100.00;102912.13;4874446;29;20129;-71
2024/01/29 09:36:08;;;;;;;0.73;0.73;;;;;;;2.40;100.00;102949.63;4872365;29;20498;-70
2024/01/29 09:38:33;;;;;;;1.60;1.50;;;;;;;1.96;100.00;102894.50;4855878;29;20052;-71
2024/01/29 09:40:59;;;;;;;1.33;1.30;;;;;;;1.81;100.00;102838.22;4869317;29;20068;-71
2024/01/29 09:43:26;;;;;;;1.00;1.00;;;;;;;2.61;100.00;102939.03;4877190;29;20133;-70
2024/01/29 09:45:53;;;;;;;0.60;0.60;;;;;;;2.81;100.00;102933.63;4873761;29;20073;-70
2024/01/29 09:48:20;;;;;;;3.80;3.53;;;;;;;2.93;100.00;102933.59;4874695;29;20036;-71
2024/01/29 09:50:48;;;;;;;6.45;5.70;;;;;;;2.15;100.00;102892.50;4855901;29;20049;-71
2024/01/29 09:53:19;;;;;;;0.88;0.88;;;;;;;3.00;100.00;102924.53;4867470;29;20076;-71
2024/01/29 09:55:45;;;;;;;0.65;0.65;;;;;;;3.43;100.00;102917.22;4872101;29;20700;-71
2024/01/29 09:58:10;;;;;;;1.60;1.50;;;;;;;2.81;100.00;102927.50;4868521;29;20043;-69
2024/01/29 10:00:36;;;;;;;0.40;0.40;;;;;;;2.33;100.00;102849.81;4855532;29;20045;-71
2024/01/29 10:03:05;;;;;;;1.27;1.23;;;;;;;3.01;100.00;102918.59;4871566;29;20060;-71
2024/01/29 10:05:31;;;;;;;2.05;1.95;;;;;;;2.48;100.00;102932.03;4871024;29;20162;-70
2024/01/29 10:08:01;;;;;;;0.60;0.60;;;;;;;2.41;100.00;102820.97;4853854;29;20105;-71
2024/01/29 10:10:27;;;;;;;2.55;2.45;;;;;;;3.00;100.00;102833.78;4873336;29;20048;-71
2024/01/29 10:13:09;;;;;;;1.05;0.85;;;;;;;3.77;100.00;102915.25;4873770;29;20064;-70
2024/01/29 10:15:35;;;;;;;1.73;1.63;;;;;;;3.94;100.00;102900.78;4855302;29;20047;-73
2024/01/29 10:18:00;;;;;;;0.93;0.93;;;;;;;3.67;100.00;102830.59;4866638;29;20056;-71
2024/01/29 10:20:28;;;;;;;2.58;2.47;;;;;;;3.94;100.00;102851.44;4872878;29;20464;-69
2024/01/29 10:23:00;;;;;;;0.70;0.70;;;;;;;3.81;100.00;102816.84;4871609;29;20391;-70
2024/01/29 10:25:31;;;;;;;0.60;0.60;;;;;;;4.37;100.00;102911.44;4852795;29;20085;-69
2024/01/29 10:28:08;;;;;;;0.30;0.30;;;;;;;3.64;100.00;102922.97;4872998;29;20025;-69
2024/01/29 10:30:34;;;;;;;2.63;2.45;;;;;;;4.07;100.00;102924.19;4871168;29;20120;-71
2024/01/29 10:33:00;;;;;;;0.88;0.88;;;;;;;3.71;100.00;102840.41;4874626;29;20655;-72
2024/01/29 10:35:25;;;;;;;0.93;0.80;;;;;;;3.66;100.00;102828.81;4872588;29;20052;-71
2024/01/29 10:37:51;;;;;;;1.38;1.33;;;;;;;3.81;100.00;102824.63;4869911;29;20078;-72
2024/01/29 10:40:21;;;;;;;1.45;1.38;;;;;;;3.63;100.00;102913.38;4870263;29;20592;-69
2024/01/29 10:42:49;;;;;;;1.33;1.23;;;;;;;3.75;100.00;102893.47;4872730;29;20055;-71
2024/01/29 10:45:19;;;;;;;0.40;0.40;;;;;;;3.64;100.00;102900.50;4859210;29;20579;-69
2024/01/29 10:47:52;;;;;;;17.55;3.85;;;;;;;4.02;100.00;102902.19;4874669;29;20059;-72
2024/01/29 10:50:19;;;;;;;0.40;0.40;;;;;;;4.14;100.00;102908.19;4874591;29;20053;-71
2024/01/29 10:52:48;;;;;;;1.23;1.23;;;;;;;3.64;100.00;102899.63;4870752;29;20080;-71
2024/01/29 10:55:17;;;;;;;0.25;0.25;;;;;;;3.43;100.00;102907.72;4871016;29;20081;-71
2024/01/29 10:57:47;;;;;;;0.40;0.40;;;;;;;4.10;100.00;102900.13;4865284;29;21039;-71
2024/01/29 11:00:16;;;;;;;2.92;2.83;;;;;;;3.59;100.00;102760.00;4871849;29;20029;-70
2024/01/29 11:02:43;;;;;;;1.17;1.10;;;;;;;4.65;100.00;102901.13;4871795;29;20056;-71
2024/01/29 11:05:11;;;;;;;0.60;0.60;;;;;;;3.83;100.00;102900.06;4868772;29;20479;-71
2024/01/29 11:07:39;;;;;;;0.40;0.40;;;;;;;3.53;100.00;102891.06;4856871;29;20049;-71
2024/01/29 11:10:05;;;;;;;1.20;1.17;;;;;;;3.89;100.00;102897.00;4875021;29;20048;-70
2024/01/29 11:12:33;;;;;;;0.70;0.70;;;;;;;3.80;100.00;102892.97;4870397;29;20044;-72
2024/01/29 11:15:00;;;;;;;0.30;0.30;;;;;;;4.73;100.00;102888.59;4870712;29;20109;-70
2024/01/29 11:17:27;;;;;;;0.30;0.30;;;;;;;3.99;100.00;102892.50;4870280;29;20053;-70